Nearby METAR Reports

 

KKLS - Kelso Longveiw, Washington, USA
Distance from station: ESE 7mi, 11km
Updated: Fri, Sep-21-2018 6:56am PDT
NOT Current
Clear
Clear
 Wind from calm
Wind: Calm
Temperature: 46°F , 8°C
Dew Point: 46°F , 8°C
Humidity: 100%
Barometer: 30.04 inHg , 1017.3 hPa
Clouds: Clear
Visibility: 10 miles , 16 km
2018/09/21 13:56 KKLS 211356Z AUTO 00000KT 10SM CLR 08/08 A3004 RMK AO2 SLP175 T00830078
KSPB - Scappoose, Oregon, USA
Distance from station: SSE 29mi, 46km
Updated: Tue, Sep-25-2018 5:53am PDT
Clear
Clear
 Wind from N
Wind: N 3 mph , 6 km/h
Temperature: 52°F , 11°C
Dew Point: 45°F , 7°C
Humidity: 77%
Barometer: 30.20 inHg , 1022.7 hPa
Clouds: Clear
Visibility: 10 miles , 16 km
2018/09/25 12:53 KSPB 251253Z AUTO 35003KT 10SM CLR 11/07 A3020 RMK AO2 SLP226 T01060072
 
KCLS - Chehalis Central, Washington, USA
Distance from station: N 36mi, 58km
Updated: Tue, Sep-25-2018 6:35am PDT
Clear
Clear
 Wind from calm
Wind: Calm
Temperature: 45°F , 7°C
Dew Point: 45°F , 7°C
Humidity: 100%
Barometer: 30.27 inHg , 1025.1 hPa
Clouds: Clear
Visibility: 10 miles , 16 km
2018/09/25 13:35 KCLS 251335Z AUTO 00000KT 10SM CLR 07/07 A3027 RMK AO2
KAST - Astoria, Oregon, USA
Distance from station: W 41mi, 66km
Updated: Tue, Sep-25-2018 5:55am PDT
Clear
Clear
 Wind from SE
Wind: SE 5 mph , 7 km/h
Temperature: 45°F , 7°C
Wind Chill: 42°F , 6°C
Dew Point: 43°F , 6°C
Humidity: 93%
Barometer: 30.21 inHg , 1023 hPa
Clouds: Clear
Visibility: 10 miles , 16 km
2018/09/25 12:55 KAST 251255Z AUTO 13004KT 10SM CLR 07/06 A3021 RMK AO2 SLP230 T00670061
 
KVUO - Vancouver, Washington, USA
Distance from station: SSE 42mi, 68km
Updated: Tue, Sep-25-2018 5:53am PDT
Clear
Clear
 Wind from calm
Wind: Calm
Temperature: 46°F , 8°C
Dew Point: 45°F , 7°C
Humidity: 93%
Barometer: 30.21 inHg , 1023 hPa
Clouds: Clear
Visibility: 10 miles , 16 km
2018/09/25 12:53 KVUO 251253Z AUTO 00000KT 10SM CLR 08/07 A3021 RMK AO2 SLP229 T00830067
KHIO - Hillsboro/Portld, Oregon, USA
Distance from station: S 43mi, 69km
Updated: Tue, Sep-25-2018 5:53am PDT
Clear
Clear
 Wind from calm
Wind: Calm
Temperature: 43°F , 6°C
Dew Point: 39°F , 4°C
Humidity: 87%
Barometer: 30.19 inHg , 1022.4 hPa
Clouds: Clear
Visibility: 10 miles , 16 km
2018/09/25 12:53 KHIO 251253Z 00000KT 10SM CLR 06/04 A3019 RMK AO2 SLP223 T00560044
 
KPDX - Portland, Oregon, USA
Distance from station: SSE 44mi, 70km
Updated: Tue, Sep-25-2018 5:53am PDT
Clear
Clear
 Wind from NNW
Wind: NNW 3 mph , 6 km/h
Temperature: 52°F , 11°C
Dew Point: 46°F , 8°C
Humidity: 82%
Barometer: 30.21 inHg , 1023 hPa
Clouds: Clear
Visibility: 10 miles , 16 km
2018/09/25 12:53 KPDX 251253Z 33003KT 10SM CLR 11/08 A3021 RMK AO2 SLP228 T01110078